Time;durP1;ratioP1;P1;durP2;ratioP2;P2;SDS_P1;SDS_P2;PMS_P1;PMS_P2;Temp;Humidity;BMP_temperature;BMP_pressure;BME280_temperature;BME280_humidity;BME280_pressure;Samples;Min_cycle;Max_cycle;Signal;HPM_P1;HPM_P2
2023/10/20 00:01:35;;;;;;;0.20;0.20;;;8.60;99.90;;;;;;4999178;28;20294;-91
2023/10/20 00:04:04;;;;;;;0.20;0.20;;;8.70;99.90;;;;;;5015925;28;20175;-90
2023/10/20 00:06:30;;;;;;;0.20;0.20;;;8.60;99.90;;;;;;4999892;28;20211;-91
2023/10/20 00:08:58;;;;;;;0.23;0.23;;;8.60;99.90;;;;;;5015102;28;20655;-92
2023/10/20 00:11:25;;;;;;;0.27;0.27;;;8.70;99.90;;;;;;4999296;28;20270;-92
2023/10/20 00:13:52;;;;;;;0.30;0.30;;;8.70;99.90;;;;;;4999334;28;20207;-91
2023/10/20 00:16:28;;;;;;;0.30;0.30;;;8.70;99.90;;;;;;5015990;28;20175;-91
2023/10/20 00:18:57;;;;;;;0.30;0.30;;;8.60;99.90;;;;;;4999440;28;20589;-91
2023/10/20 00:21:24;;;;;;;0.40;0.40;;;8.60;99.90;;;;;;5015425;28;20348;-91
2023/10/20 00:23:50;;;;;;;0.20;0.20;;;8.70;99.90;;;;;;5015195;28;20215;-90
2023/10/20 00:26:17;;;;;;;0.30;0.30;;;8.60;99.90;;;;;;5016140;28;20219;-90
2023/10/20 00:28:43;;;;;;;0.10;0.10;;;8.70;99.90;;;;;;5008580;28;20224;-92
2023/10/20 00:31:11;;;;;;;0.13;0.13;;;8.60;99.90;;;;;;5016662;28;20187;-93
2023/10/20 00:33:42;;;;;;;0.20;0.20;;;8.60;99.90;;;;;;5015194;28;20362;-89
2023/10/20 00:36:09;;;;;;;0.30;0.30;;;8.60;99.90;;;;;;5015190;28;20226;-92
2023/10/20 00:38:35;;;;;;;0.30;0.30;;;8.60;99.90;;;;;;5015245;28;20218;-90
2023/10/20 00:41:01;;;;;;;0.30;0.30;;;8.70;99.90;;;;;;4983108;28;20207;-90
2023/10/20 00:43:37;;;;;;;0.30;0.30;;;8.70;99.90;;;;;;4998620;28;20200;-91
2023/10/20 00:46:05;;;;;;;0.27;0.27;;;8.70;99.90;;;;;;4999989;28;20175;-91
2023/10/20 00:48:32;;;;;;;0.20;0.20;;;8.70;99.90;;;;;;5015069;28;20278;-91
2023/10/20 00:51:00;;;;;;;0.20;0.20;;;8.60;99.90;;;;;;4982776;28;20215;-90
2023/10/20 00:53:30;;;;;;;0.20;0.20;;;8.70;99.90;;;;;;5014413;28;20219;-91
2023/10/20 00:55:58;;;;;;;0.20;0.20;;;8.60;99.90;;;;;;5014616;28;20215;-91
2023/10/20 00:58:27;;;;;;;0.10;0.10;;;8.60;99.90;;;;;;5008396;28;20197;-91
2023/10/20 01:00:53;;;;;;;0.20;0.20;;;8.70;99.90;;;;;;4999169;28;20187;-92
2023/10/20 01:03:20;;;;;;;0.30;0.30;;;8.70;99.90;;;;;;4997712;28;20630;-91
2023/10/20 01:05:47;;;;;;;1.07;1.07;;;8.70;99.90;;;;;;5014580;28;20223;-91
2023/10/20 01:08:13;;;;;;;0.50;0.50;;;8.70;99.90;;;;;;4998792;28;20246;-91
2023/10/20 01:10:39;;;;;;;0.97;0.97;;;8.70;99.90;;;;;;5007383;28;20183;-91
2023/10/20 01:13:05;;;;;;;1.10;1.00;;;8.70;99.90;;;;;;5011200;28;20194;-90
2023/10/20 01:15:32;;;;;;;1.43;1.33;;;8.70;99.90;;;;;;5025628;28;20757;-91
2023/10/20 01:17:59;;;;;;;2.77;2.50;;;8.70;99.90;;;;;;5025489;28;20218;-89
2023/10/20 01:20:25;;;;;;;2.70;2.27;;;8.70;99.90;;;;;;5025644;28;20785;-91
2023/10/20 01:22:50;;;;;;;1.83;0.83;;;8.70;99.90;;;;;;5010049;28;20223;-91
2023/10/20 01:25:16;;;;;;;2.23;2.03;;;8.70;99.90;;;;;;5015340;28;20255;-90
2023/10/20 01:27:42;;;;;;;0.97;0.97;;;8.70;99.90;;;;;;5030602;28;20246;-89
2023/10/20 01:30:10;;;;;;;3.70;0.80;;;8.80;99.90;;;;;;5013216;28;20230;-92
2023/10/20 01:32:38;;;;;;;1.83;1.73;;;8.70;99.90;;;;;;5012687;28;20230;-90
2023/10/20 01:35:05;;;;;;;1.50;1.43;;;8.80;99.90;;;;;;5027634;28;20273;-90
2023/10/20 01:37:30;;;;;;;1.33;1.17;;;8.80;99.90;;;;;;5027987;28;20608;-92
2023/10/20 01:39:56;;;;;;;1.43;0.60;;;8.80;99.90;;;;;;4997169;28;20214;-90
2023/10/20 01:42:22;;;;;;;1.63;1.47;;;8.80;99.90;;;;;;5027707;28;20227;-92
2023/10/20 01:44:48;;;;;;;2.37;2.17;;;8.80;99.90;;;;;;5010755;28;20225;-90
2023/10/20 01:47:14;;;;;;;1.17;1.07;;;8.80;99.90;;;;;;5011849;28;20219;-89
2023/10/20 01:49:39;;;;;;;0.97;0.90;;;8.80;99.90;;;;;;5027524;28;20615;-89
2023/10/20 01:52:05;;;;;;;1.30;1.20;;;8.80;99.90;;;;;;5029904;28;20198;-92
2023/10/20 01:54:31;;;;;;;0.77;0.77;;;8.80;99.90;;;;;;5029293;28;20575;-89
2023/10/20 01:56:57;;;;;;;0.50;0.50;;;8.80;99.90;;;;;;5012174;28;20223;-89
2023/10/20 01:59:23;;;;;;;1.63;1.13;;;8.90;99.90;;;;;;4997350;28;20241;-92
2023/10/20 02:01:49;;;;;;;2.23;1.97;;;8.90;99.90;;;;;;5028151;28;20229;-88
2023/10/20 02:04:15;;;;;;;1.50;1.40;;;8.90;99.90;;;;;;5029249;28;20231;-89
2023/10/20 02:06:42;;;;;;;1.67;1.30;;;8.90;99.90;;;;;;4996039;28;20223;-89
2023/10/20 02:09:09;;;;;;;1.77;1.67;;;8.80;99.90;;;;;;5010254;28;20290;-89
2023/10/20 02:11:36;;;;;;;1.27;1.00;;;8.90;99.90;;;;;;5027584;28;20230;-90
2023/10/20 02:14:03;;;;;;;2.00;1.90;;;8.90;99.90;;;;;;5024860;28;20219;-91
2023/10/20 02:16:30;;;;;;;0.97;0.97;;;8.90;99.90;;;;;;5024563;28;20214;-91
2023/10/20 02:18:56;;;;;;;2.40;1.63;;;8.90;99.90;;;;;;5024893;28;20178;-88
2023/10/20 02:21:22;;;;;;;2.03;1.30;;;8.90;99.90;;;;;;5025802;28;20591;-90
2023/10/20 02:23:48;;;;;;;1.57;1.47;;;8.90;99.90;;;;;;5007227;28;20269;-90
2023/10/20 02:26:14;;;;;;;2.30;2.20;;;8.80;99.90;;;;;;4992258;28;20211;-90
2023/10/20 02:28:43;;;;;;;1.93;1.80;;;8.90;99.90;;;;;;5024764;28;20187;-91
2023/10/20 02:31:13;;;;;;;1.00;1.00;;;8.90;99.90;;;;;;5024459;28;20191;-92
2023/10/20 02:33:39;;;;;;;1.10;1.10;;;8.80;99.90;;;;;;5021707;28;20302;-89
2023/10/20 02:36:05;;;;;;;2.13;1.90;;;8.80;99.90;;;;;;5018807;28;20303;-91
2023/10/20 02:38:31;;;;;;;2.90;2.70;;;8.90;99.90;;;;;;5001876;28;20230;-90
2023/10/20 02:40:57;;;;;;;3.00;2.53;;;8.80;99.90;;;;;;5017552;28;20285;-92
2023/10/20 02:43:23;;;;;;;1.47;1.40;;;8.90;99.90;;;;;;5016910;28;20207;-89
2023/10/20 02:45:52;;;;;;;0.87;0.87;;;8.70;99.90;;;;;;5017750;28;20179;-90
2023/10/20 02:48:18;;;;;;;2.20;2.03;;;8.70;99.90;;;;;;5017006;28;20287;-89
2023/10/20 02:50:45;;;;;;;5.17;1.77;;;8.80;99.90;;;;;;4984630;28;20720;-89
2023/10/20 02:53:13;;;;;;;1.30;1.27;;;8.70;99.90;;;;;;5016589;28;20215;-91
2023/10/20 02:55:40;;;;;;;1.30;1.20;;;8.80;99.90;;;;;;5017516;28;20185;-89
2023/10/20 02:58:10;;;;;;;3.33;1.97;;;8.80;99.90;;;;;;5017340;28;20180;-89
2023/10/20 03:00:46;;;;;;;2.20;1.40;;;8.70;99.90;;;;;;4999762;28;20273;-88
2023/10/20 03:03:17;;;;;;;3.80;1.90;;;8.80;99.90;;;;;;5001454;28;20230;-91
2023/10/20 03:05:45;;;;;;;2.23;1.97;;;8.70;99.90;;;;;;5016275;28;20685;-91
2023/10/20 03:08:11;;;;;;;5.63;1.33;;;8.60;99.90;;;;;;4999724;28;20218;-91
2023/10/20 03:10:38;;;;;;;4.07;2.27;;;8.70;99.90;;;;;;5015805;28;20211;-89
2023/10/20 03:13:04;;;;;;;1.50;1.33;;;8.60;99.90;;;;;;5000502;28;20242;-88
2023/10/20 03:15:33;;;;;;;2.67;2.37;;;8.60;99.90;;;;;;5016809;28;20211;-89
2023/10/20 03:17:59;;;;;;;2.90;2.57;;;8.60;99.90;;;;;;5016578;28;20215;-89
2023/10/20 03:20:28;;;;;;;1.17;1.17;;;8.60;99.90;;;;;;5015838;28;20214;-90
2023/10/20 03:22:54;;;;;;;1.93;1.83;;;8.60;99.90;;;;;;4999793;28;20215;-90
2023/10/20 03:25:21;;;;;;;2.83;2.63;;;8.70;99.90;;;;;;4999691;28;20281;-90
2023/10/20 03:27:48;;;;;;;1.53;1.13;;;8.60;99.90;;;;;;5015808;28;20219;-91
2023/10/20 03:30:17;;;;;;;0.70;0.70;;;8.60;99.90;;;;;;5015590;28;20228;-90
2023/10/20 03:32:45;;;;;;;2.63;2.43;;;8.50;99.90;;;;;;5015601;28;20222;-90
2023/10/20 03:35:12;;;;;;;3.77;3.47;;;8.50;99.90;;;;;;5014661;28;20273;-89
2023/10/20 03:37:41;;;;;;;1.83;1.73;;;8.50;99.90;;;;;;4982604;28;20635;-89
2023/10/20 03:40:13;;;;;;;3.83;1.70;;;8.50;99.90;;;;;;5015997;28;20187;-88
2023/10/20 03:42:43;;;;;;;3.07;2.77;;;8.40;99.90;;;;;;4998942;28;20235;-90
2023/10/20 03:45:10;;;;;;;6.80;2.40;;;8.40;99.90;;;;;;4999381;28;20275;-88
2023/10/20 03:47:40;;;;;;;4.47;2.17;;;8.50;99.90;;;;;;5015615;28;20294;-88
2023/10/20 03:50:16;;;;;;;3.03;2.83;;;8.40;99.90;;;;;;5016088;28;20210;-88
2023/10/20 03:52:46;;;;;;;3.87;3.67;;;8.30;99.90;;;;;;4986734;28;20178;-88
2023/10/20 03:55:15;;;;;;;2.37;2.07;;;8.40;99.90;;;;;;5002550;28;20180;-89
2023/10/20 03:57:44;;;;;;;2.17;1.60;;;8.30;99.90;;;;;;5025416;28;20279;-87
2023/10/20 04:00:18;;;;;;;7.37;3.67;;;8.20;99.90;;;;;;5031916;28;20212;-90
2023/10/20 04:02:47;;;;;;;2.40;2.30;;;8.30;99.90;;;;;;5009125;28;20247;-90
2023/10/20 04:05:14;;;;;;;5.33;2.10;;;8.30;99.90;;;;;;5015088;28;20207;-87
2023/10/20 04:07:41;;;;;;;4.03;1.97;;;8.40;99.90;;;;;;4998271;28;20323;-90
2023/10/20 04:10:08;;;;;;;2.37;1.93;;;8.30;99.90;;;;;;4983653;28;20202;-89
2023/10/20 04:12:36;;;;;;;1.77;1.67;;;8.30;99.90;;;;;;4984201;28;20222;-91
2023/10/20 04:15:04;;;;;;;1.67;1.57;;;8.30;99.90;;;;;;5017422;28;20211;-89
2023/10/20 04:17:30;;;;;;;1.83;1.70;;;8.40;99.90;;;;;;5017095;28;20222;-90
2023/10/20 04:19:56;;;;;;;1.40;1.37;;;8.20;99.90;;;;;;5003437;28;20226;-89
2023/10/20 04:22:23;;;;;;;7.73;2.97;;;8.40;99.90;;;;;;5007649;28;20258;-90
2023/10/20 04:24:49;;;;;;;1.60;1.50;;;8.30;99.90;;;;;;5004174;28;20243;-92
2023/10/20 04:27:57;;;;;;;2.47;2.27;;;8.20;99.90;;;;;;5015166;28;20739;-90
2023/10/20 04:44:57;;;;;;;1.60;1.53;;;8.40;99.90;;;;;;5001231;28;20211;-88
2023/10/20 04:52:05;;;;;;;0.53;0.53;;;8.30;99.90;;;;;;5014519;28;20312;-91
2023/10/20 04:54:56;;;;;;;3.37;3.17;;;8.30;99.90;;;;;;4990071;28;20226;-89
2023/10/20 05:01:04;;;;;;;0.77;0.77;;;8.50;99.90;;;;;;5013592;28;20643;-89
2023/10/20 05:07:56;;;;;;;3.63;3.03;;;8.50;99.90;;;;;;5014033;28;20234;-88
2023/10/20 05:10:21;;;;;;;0.83;0.83;;;8.50;99.90;;;;;;5014475;28;20171;-92
2023/10/20 05:12:48;;;;;;;0.93;0.93;;;8.60;99.90;;;;;;5013392;28;20226;-91
2023/10/20 05:15:14;;;;;;;1.17;1.17;;;8.50;99.90;;;;;;5013880;28;20226;-89
2023/10/20 05:17:40;;;;;;;5.80;2.73;;;8.50;99.90;;;;;;5013527;28;20303;-89
2023/10/20 05:20:12;;;;;;;1.57;1.53;;;8.50;99.90;;;;;;5013539;28;20261;-91
2023/10/20 05:22:40;;;;;;;8.50;1.57;;;8.40;99.90;;;;;;5014382;28;20214;-88
2023/10/20 05:25:11;;;;;;;3.93;2.30;;;8.50;99.90;;;;;;4997534;28;20675;-91
2023/10/20 05:27:37;;;;;;;1.53;1.07;;;8.50;99.90;;;;;;5014167;28;20227;-92
2023/10/20 05:30:04;;;;;;;1.80;1.70;;;8.50;99.90;;;;;;5013596;28;20218;-92
2023/10/20 05:32:31;;;;;;;1.53;1.53;;;8.50;99.90;;;;;;4996502;28;20292;-89
2023/10/20 05:35:01;;;;;;;2.87;1.33;;;8.60;99.90;;;;;;5013253;28;20229;-90
2023/10/20 05:37:27;;;;;;;1.37;1.27;;;8.60;99.90;;;;;;5013336;28;20233;-92
2023/10/20 05:39:53;;;;;;;3.40;1.90;;;8.60;99.90;;;;;;4981230;28;20660;-92
2023/10/20 05:42:22;;;;;;;1.17;1.17;;;8.60;99.90;;;;;;4996305;28;20238;-91
2023/10/20 05:44:58;;;;;;;1.40;1.30;;;8.60;99.90;;;;;;5013025;28;20219;-91
2023/10/20 05:47:25;;;;;;;0.97;0.90;;;8.70;99.90;;;;;;5013400;28;20241;-90
2023/10/20 05:49:51;;;;;;;1.17;1.17;;;8.70;99.90;;;;;;5013039;28;20617;-89
2023/10/20 05:52:17;;;;;;;0.90;0.87;;;8.70;99.90;;;;;;4997423;28;20270;-93
2023/10/20 05:54:43;;;;;;;0.73;0.73;;;8.70;99.90;;;;;;5012832;28;20294;-88
2023/10/20 05:57:09;;;;;;;2.30;2.20;;;8.80;99.90;;;;;;5013156;28;20659;-90
2023/10/20 05:59:35;;;;;;;2.27;1.47;;;8.80;99.90;;;;;;5012892;28;20219;-88
2023/10/20 06:02:03;;;;;;;1.73;0.83;;;8.80;99.90;;;;;;5013825;28;20230;-93
2023/10/20 06:04:29;;;;;;;1.17;1.17;;;8.80;99.90;;;;;;4997044;28;20193;-93
2023/10/20 06:06:55;;;;;;;5.60;1.53;;;8.80;99.90;;;;;;5013499;28;20171;-90
2023/10/20 06:09:21;;;;;;;1.60;1.30;;;8.80;99.90;;;;;;5012570;28;20657;-92
2023/10/20 06:11:46;;;;;;;0.93;0.93;;;8.90;99.90;;;;;;4997151;28;20559;-90
2023/10/20 06:14:12;;;;;;;0.90;0.90;;;8.80;99.90;;;;;;4996244;28;20670;-92
2023/10/20 06:16:38;;;;;;;0.83;0.83;;;8.80;99.90;;;;;;4996013;28;20179;-90
2023/10/20 06:19:04;;;;;;;0.57;0.57;;;8.80;99.90;;;;;;4981120;28;20171;-91
2023/10/20 06:21:35;;;;;;;0.90;0.90;;;8.80;99.90;;;;;;4980383;28;20239;-90
2023/10/20 06:24:14;;;;;;;1.10;1.00;;;8.80;99.90;;;;;;5009288;27;1384497;-88
2023/10/20 06:26:40;;;;;;;0.50;0.50;;;8.80;99.90;;;;;;5042263;28;20220;-91
2023/10/20 06:34:41;;;;;;;0.70;0.70;;;8.70;99.90;;;;;;5036997;28;20188;-89
2023/10/20 06:37:14;;;;;;;1.23;1.23;;;8.80;99.90;;;;;;5036769;28;20209;-88
2023/10/20 06:39:41;;;;;;;0.70;0.70;;;8.70;99.90;;;;;;5052500;28;20257;-89
2023/10/20 06:42:09;;;;;;;0.60;0.60;;;8.70;99.90;;;;;;5043513;28;20229;-89
2023/10/20 06:44:35;;;;;;;0.60;0.60;;;8.70;99.90;;;;;;5044947;28;20225;-89
2023/10/20 06:47:01;;;;;;;0.80;0.80;;;8.70;99.90;;;;;;5061576;28;20209;-92
2023/10/20 06:49:28;;;;;;;5.30;3.40;;;8.70;99.90;;;;;;5061161;28;20181;-89
2023/10/20 06:51:54;;;;;;;0.73;0.73;;;8.70;99.90;;;;;;5076730;28;20182;-89
2023/10/20 06:54:20;;;;;;;0.77;0.77;;;8.60;99.90;;;;;;5061382;28;20281;-89
2023/10/20 06:56:46;;;;;;;2.20;2.10;;;8.70;99.90;;;;;;5061221;28;20224;-88
2023/10/20 06:59:15;;;;;;;0.40;0.40;;;8.70;99.90;;;;;;5061651;28;20228;-90
2023/10/20 07:01:42;;;;;;;1.10;0.97;;;8.60;99.90;;;;;;5062776;28;20189;-87
2023/10/20 07:04:11;;;;;;;0.83;0.83;;;8.70;99.90;;;;;;5045686;28;21180;-88
2023/10/20 07:06:37;;;;;;;1.83;1.83;;;8.60;99.90;;;;;;5043590;28;20217;-88
2023/10/20 07:09:11;;;;;;;5.53;1.93;;;8.60;99.90;;;;;;5060812;28;20217;-87
2023/10/20 07:11:42;;;;;;;0.67;0.67;;;8.60;99.90;;;;;;5045294;28;20225;-89
2023/10/20 07:14:08;;;;;;;0.90;0.90;;;8.60;99.90;;;;;;5059882;28;20214;-90
2023/10/20 07:16:34;;;;;;;1.50;1.50;;;8.70;99.90;;;;;;5058749;28;20200;-91
2023/10/20 07:19:02;;;;;;;0.23;0.23;;;8.60;99.90;;;;;;5041959;28;20537;-90
2023/10/20 07:21:28;;;;;;;0.90;0.90;;;8.60;99.90;;;;;;5057143;28;20312;-90
2023/10/20 07:23:55;;;;;;;0.40;0.40;;;8.70;99.90;;;;;;5041737;28;20316;-89
2023/10/20 07:26:21;;;;;;;0.73;0.73;;;8.60;99.90;;;;;;5057203;28;20264;-90
2023/10/20 07:28:47;;;;;;;0.87;0.87;;;8.60;99.90;;;;;;5057535;28;20221;-90
2023/10/20 07:31:15;;;;;;;0.80;0.80;;;8.60;99.90;;;;;;5042383;28;20182;-89
2023/10/20 07:33:41;;;;;;;2.50;1.47;;;8.70;99.90;;;;;;5038870;28;20349;-91
2023/10/20 07:36:07;;;;;;;0.80;0.80;;;8.60;99.90;;;;;;5045413;28;20221;-92
2023/10/20 07:38:33;;;;;;;1.97;1.87;;;8.60;99.90;;;;;;5046964;28;20294;-89
2023/10/20 07:41:11;;;;;;;1.03;1.03;;;8.60;99.90;;;;;;5030874;28;20296;-93
2023/10/20 07:43:41;;;;;;;0.63;0.63;;;8.50;99.90;;;;;;5045525;28;20206;-91
2023/10/20 07:46:14;;;;;;;0.77;0.70;;;8.60;99.90;;;;;;5044184;28;20223;-92
2023/10/20 07:48:40;;;;;;;1.23;1.13;;;8.60;99.90;;;;;;5045278;28;20243;-92
2023/10/20 07:51:06;;;;;;;1.47;1.37;;;8.50;99.90;;;;;;5046514;28;20217;-91
2023/10/20 07:53:31;;;;;;;0.90;0.90;;;8.50;99.90;;;;;;5045741;28;20240;-90
2023/10/20 07:55:57;;;;;;;1.23;1.23;;;8.50;99.90;;;;;;5049059;28;20267;-92
2023/10/20 07:58:23;;;;;;;0.50;0.50;;;8.50;99.90;;;;;;5029863;28;20192;-91
2023/10/20 08:00:52;;;;;;;0.50;0.50;;;8.60;99.90;;;;;;5033063;28;20194;-92
2023/10/20 08:03:18;;;;;;;2.03;2.03;;;8.60;99.90;;;;;;5049350;28;20700;-91
2023/10/20 08:05:44;;;;;;;1.00;1.00;;;8.50;99.90;;;;;;5048095;28;20214;-93
2023/10/20 08:08:12;;;;;;;1.03;1.03;;;8.60;99.90;;;;;;5028732;28;20222;-90
2023/10/20 08:10:38;;;;;;;0.77;0.77;;;8.50;99.90;;;;;;5045590;28;20179;-94
2023/10/20 08:13:06;;;;;;;0.97;0.97;;;8.50;99.90;;;;;;5031076;28;20193;-91
2023/10/20 08:15:37;;;;;;;0.50;0.50;;;8.50;99.90;;;;;;5048529;28;20222;-91
2023/10/20 08:18:03;;;;;;;0.43;0.43;;;8.50;99.90;;;;;;5046886;28;20241;-87
2023/10/20 08:20:33;;;;;;;0.60;0.60;;;8.50;99.90;;;;;;5058752;28;20225;-92
2023/10/20 08:23:02;;;;;;;0.60;0.60;;;8.40;99.90;;;;;;5062902;28;20266;-92
2023/10/20 08:25:31;;;;;;;0.80;0.80;;;8.40;99.90;;;;;;5065618;28;20271;-92
2023/10/20 08:27:57;;;;;;;0.40;0.40;;;8.40;99.90;;;;;;5067167;28;20205;-93
2023/10/20 08:30:33;;;;;;;1.87;1.87;;;8.30;99.90;;;;;;5070187;28;20229;-89
2023/10/20 08:33:09;;;;;;;0.50;0.50;;;8.30;99.90;;;;;;5083248;28;20213;-91
2023/10/20 08:35:37;;;;;;;5.13;4.93;;;8.20;99.90;;;;;;5051438;28;20224;-89
2023/10/20 08:38:05;;;;;;;0.60;0.60;;;8.20;99.90;;;;;;5044433;28;20308;-89
2023/10/20 08:40:34;;;;;;;0.57;0.57;;;8.10;99.90;;;;;;5048104;28;20189;-90
2023/10/20 08:43:02;;;;;;;1.27;1.17;;;8.10;99.90;;;;;;5056617;28;20218;-92
2023/10/20 08:45:32;;;;;;;0.80;0.80;;;8.00;99.90;;;;;;5069138;28;20245;-91
2023/10/20 08:48:10;;;;;;;3.40;2.97;;;8.00;99.90;;;;;;5073403;28;20238;-90
2023/10/20 08:50:39;;;;;;;0.63;0.63;;;7.90;99.90;;;;;;5050868;28;20319;-91
2023/10/20 08:53:06;;;;;;;0.87;0.87;;;8.00;99.90;;;;;;5045410;28;20226;-90
2023/10/20 08:55:32;;;;;;;0.73;0.73;;;8.00;99.90;;;;;;5045944;28;20190;-90
2023/10/20 08:57:58;;;;;;;0.80;0.80;;;8.00;99.90;;;;;;5026605;28;20273;-90
2023/10/20 09:00:30;;;;;;;0.90;0.63;;;8.00;99.90;;;;;;5028323;28;20312;-91
2023/10/20 09:02:59;;;;;;;1.13;1.13;;;8.00;99.90;;;;;;5038071;28;20249;-91
2023/10/20 09:05:33;;;;;;;0.57;0.57;;;7.90;99.90;;;;;;5027715;28;20576;-94
2023/10/20 09:08:00;;;;;;;0.40;0.40;;;8.00;99.90;;;;;;5028719;28;20218;-90
2023/10/20 09:10:28;;;;;;;0.97;0.97;;;8.00;99.90;;;;;;5028498;28;20235;-91
2023/10/20 09:13:02;;;;;;;0.80;0.80;;;8.00;99.90;;;;;;5043779;28;20705;-92
2023/10/20 09:15:30;;;;;;;0.87;0.87;;;8.10;99.90;;;;;;5025713;28;20206;-91
2023/10/20 09:18:07;;;;;;;0.93;0.93;;;8.00;99.90;;;;;;5025213;28;20214;-93
2023/10/20 09:20:35;;;;;;;1.20;1.20;;;7.90;99.90;;;;;;5041211;28;20213;-91
2023/10/20 09:23:18;;;;;;;1.13;1.13;;;7.90;99.90;;;;;;5023210;28;20226;-91
2023/10/20 09:25:49;;;;;;;0.87;0.87;;;7.80;99.90;;;;;;5058668;28;20286;-92
2023/10/20 09:28:17;;;;;;;2.17;2.10;;;7.70;99.90;;;;;;5025942;28;20268;-91
2023/10/20 09:30:53;;;;;;;0.73;0.73;;;7.70;99.90;;;;;;5043211;28;20218;-92
2023/10/20 09:33:31;;;;;;;0.53;0.53;;;7.60;99.90;;;;;;5045726;28;20320;-95
2023/10/20 09:36:11;;;;;;;1.17;1.17;;;7.60;99.90;;;;;;5049913;28;20225;-94
2023/10/20 09:38:40;;;;;;;0.50;0.50;;;7.70;99.90;;;;;;5046375;28;20230;-91
2023/10/20 09:41:11;;;;;;;1.07;0.70;;;7.70;99.90;;;;;;5027464;28;20217;-91
2023/10/20 09:43:52;;;;;;;0.40;0.40;;;7.70;99.90;;;;;;5044149;28;20208;-91
2023/10/20 09:46:39;;;;;;;0.50;0.50;;;7.80;99.90;;;;;;5045416;28;20287;-92
2023/10/20 09:49:15;;;;;;;1.20;1.20;;;7.80;99.90;;;;;;5044540;28;20218;-88
2023/10/20 09:51:46;;;;;;;0.67;0.67;;;7.70;99.90;;;;;;5044853;28;20241;-91
2023/10/20 09:54:18;;;;;;;0.80;0.80;;;7.80;99.90;;;;;;5043542;28;20225;-91
2023/10/20 09:56:46;;;;;;;0.30;0.30;;;7.70;99.90;;;;;;5043833;28;20222;-91
2023/10/20 09:59:20;;;;;;;0.57;0.57;;;7.60;99.90;;;;;;5027393;28;20222;-92
2023/10/20 10:02:02;;;;;;;0.67;0.67;;;7.60;99.90;;;;;;5029902;28;20217;-94
2023/10/20 10:04:41;;;;;;;0.77;0.77;;;7.50;99.90;;;;;;5035835;28;20210;-91
2023/10/20 10:07:07;;;;;;;0.57;0.57;;;7.60;99.90;;;;;;5059600;28;20190;-91
2023/10/20 10:09:54;;;;;;;0.73;0.73;;;7.60;99.90;;;;;;5044464;28;20218;-91
2023/10/20 10:12:23;;;;;;;0.83;0.83;;;7.60;99.90;;;;;;5044639;28;20222;-90
2023/10/20 10:15:23;;;;;;;1.10;1.10;;;7.60;99.90;;;;;;5044256;28;20213;-90
2023/10/20 10:17:52;;;;;;;0.30;0.30;;;7.60;99.90;;;;;;5043478;28;20214;-91
2023/10/20 10:20:19;;;;;;;0.80;0.70;;;7.80;99.90;;;;;;5042649;28;20225;-88
2023/10/20 10:22:45;;;;;;;0.40;0.40;;;7.60;99.90;;;;;;5043975;28;20230;-88
2023/10/20 10:25:11;;;;;;;1.30;1.30;;;7.80;99.90;;;;;;5043271;28;20689;-90
2023/10/20 10:27:39;;;;;;;0.70;0.70;;;7.70;99.90;;;;;;5025010;28;20245;-92
2023/10/20 10:30:09;;;;;;;0.90;0.90;;;7.80;99.90;;;;;;5024555;28;20221;-92
2023/10/20 10:32:52;;;;;;;0.30;0.30;;;7.70;99.90;;;;;;5043684;28;20210;-90
2023/10/20 10:35:21;;;;;;;0.47;0.47;;;7.60;99.90;;;;;;5058389;28;20213;-91
2023/10/20 10:37:47;;;;;;;0.40;0.40;;;7.70;99.90;;;;;;5040887;28;20226;-87
2023/10/20 10:40:26;;;;;;;0.40;0.40;;;7.60;99.90;;;;;;5013058;28;20182;-94
2023/10/20 10:43:02;;;;;;;0.30;0.30;;;7.60;99.90;;;;;;5030230;28;20311;-93
2023/10/20 10:45:31;;;;;;;0.87;0.87;;;7.70;99.90;;;;;;5028933;28;20267;-90
2023/10/20 10:48:22;;;;;;;0.70;0.70;;;7.70;99.90;;;;;;5057987;28;20702;-92
2023/10/20 10:50:48;;;;;;;0.43;0.43;;;7.70;99.90;;;;;;5046181;28;20225;-91
2023/10/20 10:53:14;;;;;;;0.50;0.50;;;7.70;99.90;;;;;;5044489;28;20214;-91
2023/10/20 10:59:12;;;;;;;0.60;0.60;;;7.70;99.90;;;;;;5038887;28;20244;-93
2023/10/20 11:01:41;;;;;;;1.83;1.83;;;7.70;99.90;;;;;;5046354;28;20194;-92
2023/10/20 11:04:17;;;;;;;1.10;1.10;;;7.70;99.90;;;;;;5030264;28;20198;-93
2023/10/20 11:06:43;;;;;;;0.80;0.80;;;7.60;99.90;;;;;;5029961;28;20217;-92
2023/10/20 11:09:10;;;;;;;0.50;0.50;;;7.70;99.90;;;;;;5005411;28;20213;-93
2023/10/20 11:11:48;;;;;;;0.37;0.37;;;7.70;99.90;;;;;;5032418;28;20285;-94
2023/10/20 11:14:23;;;;;;;0.33;0.33;;;7.60;99.90;;;;;;5053125;28;20473;-90
2023/10/20 11:16:52;;;;;;;0.70;0.70;;;7.70;99.90;;;;;;5051645;28;20218;-93
2023/10/20 11:19:21;;;;;;;0.60;0.60;;;7.60;99.90;;;;;;5034591;28;20210;-91
2023/10/20 11:21:53;;;;;;;1.80;1.80;;;7.60;99.90;;;;;;5036528;28;20256;-93
2023/10/20 11:24:44;;;;;;;0.70;0.70;;;7.60;99.90;;;;;;5053494;28;20291;-92
2023/10/20 11:27:27;;;;;;;0.50;0.50;;;7.50;99.90;;;;;;5064063;28;20220;-95
2023/10/20 11:30:05;;;;;;;;;;;;;;;;;;;;;
2023/10/20 11:32:33;;;;;;;0.40;0.40;;;7.60;99.90;;;;;;5031459;28;20279;-92
2023/10/20 11:35:07;;;;;;;0.40;0.40;;;7.70;99.90;;;;;;5048268;28;20235;-93
2023/10/20 11:37:36;;;;;;;0.77;0.77;;;7.70;99.90;;;;;;5033075;28;20209;-91
2023/10/20 11:40:02;;;;;;;0.60;0.60;;;7.60;99.90;;;;;;5032319;28;20186;-93
2023/10/20 11:42:28;;;;;;;0.70;0.70;;;7.60;99.90;;;;;;5031953;28;20245;-90
2023/10/20 11:44:55;;;;;;;0.20;0.20;;;7.60;99.90;;;;;;5047306;28;20656;-87
2023/10/20 11:47:22;;;;;;;0.30;0.30;;;7.70;99.90;;;;;;5046406;28;20237;-86
2023/10/20 11:50:00;;;;;;;0.20;0.20;;;7.50;99.90;;;;;;5045777;28;20226;-85
2023/10/20 11:52:26;;;;;;;0.30;0.30;;;7.60;99.90;;;;;;5046057;28;20177;-82
2023/10/20 11:54:52;;;;;;;0.30;0.30;;;7.40;99.90;;;;;;5045768;28;20189;-85
2023/10/20 11:57:18;;;;;;;0.30;0.30;;;7.60;99.90;;;;;;5046284;28;20222;-87
2023/10/20 11:59:44;;;;;;;0.40;0.40;;;7.60;99.90;;;;;;5029289;28;20224;-84
2023/10/20 12:02:10;;;;;;;0.30;0.30;;;7.60;99.90;;;;;;5028552;28;20236;-85
2023/10/20 12:04:36;;;;;;;0.30;0.30;;;7.70;99.90;;;;;;5046763;28;20186;-86
2023/10/20 12:07:02;;;;;;;0.40;0.40;;;7.60;99.90;;;;;;5012523;28;20198;-84
2023/10/20 12:09:28;;;;;;;0.23;0.23;;;7.70;99.90;;;;;;5037647;28;20716;-84
2023/10/20 12:11:54;;;;;;;0.30;0.30;;;7.50;99.90;;;;;;5029145;28;20353;-86
2023/10/20 12:14:19;;;;;;;0.30;0.30;;;7.60;99.90;;;;;;5029056;28;20295;-85
2023/10/20 12:16:46;;;;;;;0.30;0.30;;;7.60;99.90;;;;;;5029279;28;20237;-85
2023/10/20 12:19:12;;;;;;;0.30;0.30;;;7.40;99.90;;;;;;5046592;28;20212;-87
2023/10/20 12:21:38;;;;;;;0.30;0.30;;;7.50;99.90;;;;;;5045189;28;20305;-85
2023/10/20 12:24:05;;;;;;;0.30;0.30;;;7.70;99.90;;;;;;5028877;28;20324;-86
2023/10/20 12:26:31;;;;;;;0.20;0.20;;;7.60;99.90;;;;;;5061274;28;20337;-86
2023/10/20 12:28:56;;;;;;;0.30;0.30;;;7.70;99.90;;;;;;5012807;28;20746;-85
2023/10/20 12:31:26;;;;;;;0.23;0.23;;;7.60;99.90;;;;;;5045876;28;20170;-85
2023/10/20 12:33:52;;;;;;;0.30;0.30;;;7.50;99.90;;;;;;5044677;28;20214;-86
2023/10/20 12:36:18;;;;;;;0.30;0.30;;;7.60;99.90;;;;;;5028863;28;20237;-85
2023/10/20 12:38:44;;;;;;;0.40;0.40;;;7.60;99.90;;;;;;5011712;28;20218;-85
2023/10/20 12:41:18;;;;;;;0.30;0.30;;;7.60;99.90;;;;;;5009276;28;20230;-85
2023/10/20 12:43:46;;;;;;;0.30;0.30;;;7.50;99.90;;;;;;5041457;28;20241;-87
2023/10/20 12:46:12;;;;;;;0.20;0.20;;;7.40;99.90;;;;;;5044997;28;20210;-88
2023/10/20 12:48:40;;;;;;;0.23;0.23;;;7.60;99.90;;;;;;5025517;28;20305;-86
2023/10/20 12:51:10;;;;;;;0.30;0.30;;;7.40;99.90;;;;;;5055769;28;20214;-89
2023/10/20 12:53:36;;;;;;;0.30;0.30;;;7.60;99.90;;;;;;5038431;28;20221;-87
2023/10/20 12:56:03;;;;;;;0.30;0.30;;;7.40;99.90;;;;;;5039478;28;20242;-85
2023/10/20 12:58:29;;;;;;;0.40;0.40;;;7.40;99.90;;;;;;5047196;28;20178;-93
2023/10/20 13:01:33;;;;;;;0.20;0.20;;;7.60;99.90;;;;;;5053577;28;20186;-94
2023/10/20 13:04:04;;;;;;;0.20;0.20;;;7.50;99.90;;;;;;5011744;28;20225;-94
2023/10/20 13:06:33;;;;;;;0.20;0.20;;;7.40;99.90;;;;;;5028755;28;20213;-92
2023/10/20 13:09:02;;;;;;;0.30;0.30;;;7.50;99.90;;;;;;5034732;28;20214;-94
2023/10/20 13:11:30;;;;;;;0.40;0.40;;;7.60;99.90;;;;;;5034143;28;20823;-92
2023/10/20 13:14:00;;;;;;;0.10;0.10;;;7.50;99.90;;;;;;5010934;28;20228;-94
2023/10/20 13:16:29;;;;;;;0.20;0.20;;;7.60;99.90;;;;;;5048118;28;20190;-95
2023/10/20 13:19:03;;;;;;;0.30;0.30;;;7.40;99.90;;;;;;5050389;28;20193;-94
2023/10/20 13:21:35;;;;;;;0.30;0.30;;;7.40;99.90;;;;;;5047429;28;20278;-91
2023/10/20 13:24:05;;;;;;;0.30;0.30;;;7.50;99.90;;;;;;5047926;28;20238;-90
2023/10/20 13:27:20;;;;;;;0.30;0.30;;;7.40;99.90;;;;;;5045709;28;20639;-93
2023/10/20 13:29:56;;;;;;;0.30;0.30;;;7.40;99.90;;;;;;5065706;28;20217;-93
2023/10/20 13:32:23;;;;;;;0.30;0.30;;;7.30;99.90;;;;;;5064246;28;20355;-93
2023/10/20 13:34:52;;;;;;;0.40;0.40;;;7.50;99.90;;;;;;5040351;28;20293;-91
2023/10/20 13:37:18;;;;;;;0.30;0.30;;;7.30;99.90;;;;;;5043756;28;20212;-91
2023/10/20 13:39:54;;;;;;;0.20;0.20;;;7.20;99.90;;;;;;5047356;28;20221;-92
2023/10/20 13:42:20;;;;;;;0.30;0.30;;;7.20;99.90;;;;;;5031532;28;20213;-92
2023/10/20 13:44:46;;;;;;;0.20;0.20;;;7.20;99.90;;;;;;5036932;28;20348;-89